»·PEaware :: WAT169 KLAS-KSNA

WAT169 :: KLAS-KSNA

FLIGHT INFORMATION

Flight Status: Arrived
Operator:
Walker Air Transport
More flights by this operator :: More flights under this callsign
Pilot: Marty P. (27464)
Aircraft: BOEING 737-800
(B738)
More flights by this aircraft type
Origin: KLAS McCarran Intl
United States
Destination: KSNA John Wayne-Orange Co
United States
More flights between these airports :: More routes between these airports
Route: BOACH8 WHIGG FEYLA DSNEE4
File this flight plan on PilotEdge
Remarks:
Altitude:
(Current/Filed)
28,000ft
Speed:
(Current/Filed)
480kts
Departed: 09-Oct-20 07:25 AM
Arrived: 09-Oct-20 08:06 AM
Distance/Time
Traveled:
197nm/0:41
Distance/Time
To Go:
Arrived

Flight Plot

Page will automatically refresh every two minutes.

Flight plan parsing failed; only flown route is shown


Map Options




Map Legend


Flown Route
Filed Route
Departure Airport
Arrival Airport
Navaid (VOR, NDB)
Fix

Horizontal Profiles

Position Reports

Time Latitude Longitude Heading Altitude Ground
Speed
09-Oct-20 06:55 36.082637 -115.138394 223 2102ft 0kts
09-Oct-20 06:56 36.082637 -115.138394 223 2102ft 0kts
09-Oct-20 06:57 36.082637 -115.138394 223 2102ft 0kts
09-Oct-20 06:58 36.082637 -115.138394 223 2102ft 0kts
09-Oct-20 06:59 36.082637 -115.138394 223 2102ft 0kts
09-Oct-20 07:00 36.082637 -115.138394 223 2102ft 0kts
09-Oct-20 07:01 36.082637 -115.138394 223 2102ft 0kts
09-Oct-20 07:02 36.082637 -115.138394 223 2102ft 0kts
09-Oct-20 07:03 36.082637 -115.138394 223 2102ft 0kts
09-Oct-20 07:04 36.082637 -115.138394 223 2102ft 0kts
09-Oct-20 07:05 36.082929 -115.138049 223 2102ft 2kts
09-Oct-20 07:06 36.083367 -115.137532 223 2102ft 2kts
09-Oct-20 07:07 36.083815 -115.137184 190 2102ft 2kts
09-Oct-20 07:08 36.084376 -115.137343 141 2102ft 2kts
09-Oct-20 07:09 36.084654 -115.137977 92 2102ft 1kts
09-Oct-20 07:10 36.084660 -115.136416 89 2102ft 7kts
09-Oct-20 07:11 36.084442 -115.134340 135 2102ft 6kts
09-Oct-20 07:12 36.083243 -115.132957 160 2102ft 4kts
09-Oct-20 07:13 36.082087 -115.132938 180 2102ft 7kts
09-Oct-20 07:14 36.079934 -115.132932 179 2102ft 7kts
09-Oct-20 07:15 36.079572 -115.132926 179 2102ft 0kts
09-Oct-20 07:16 36.079572 -115.132926 179 2102ft 0kts
09-Oct-20 07:17 36.079550 -115.132925 179 2102ft 2kts
09-Oct-20 07:18 36.078903 -115.130358 89 2102ft 15kts
09-Oct-20 07:19 36.078536 -115.126245 156 2102ft 7kts
09-Oct-20 07:20 36.078279 -115.123579 90 2102ft 12kts
09-Oct-20 07:21 36.077457 -115.121475 140 2102ft 0kts
09-Oct-20 07:22 36.077457 -115.121475 140 2102ft 0kts
09-Oct-20 07:23 36.077187 -115.121327 173 2102ft 9kts
09-Oct-20 07:24 36.076375 -115.142692 270 2114ft 166kts
09-Oct-20 07:25 36.076845 -115.206935 267 4016ft 216kts
09-Oct-20 07:26 36.037103 -115.271621 200 6668ft 270kts
09-Oct-20 07:27 35.964086 -115.301675 190 10064ft 285kts
09-Oct-20 07:28 35.884000 -115.312003 186 12961ft 307kts
09-Oct-20 07:29 35.787917 -115.307364 175 14014ft 377kts
09-Oct-20 07:30 35.684578 -115.312837 202 16836ft 382kts
09-Oct-20 07:31 35.602795 -115.396479 228 19198ft 392kts
09-Oct-20 07:32 35.528328 -115.496514 228 21442ft 402kts
09-Oct-20 07:33 35.452017 -115.599224 228 23379ft 414kts
09-Oct-20 07:34 35.373655 -115.704784 227 25099ft 425kts
09-Oct-20 07:35 35.292913 -115.813295 227 26673ft 436kts
09-Oct-20 07:36 35.210952 -115.922580 226 28093ft 449kts
09-Oct-20 07:37 35.119760 -116.037037 225 28121ft 490kts
09-Oct-20 07:38 35.025719 -116.155159 225 28161ft 482kts
09-Oct-20 07:39 34.931968 -116.272781 225 28160ft 481kts
09-Oct-20 07:40 34.837733 -116.391365 226 27592ft 485kts
09-Oct-20 07:41 34.752218 -116.500164 226 25886ft 421kts
09-Oct-20 07:42 34.672265 -116.595013 219 24735ft 400kts
09-Oct-20 07:43 34.586919 -116.678931 218 22331ft 386kts
09-Oct-20 07:44 34.505603 -116.759154 221 20154ft 370kts
09-Oct-20 07:45 34.432813 -116.844329 223 18149ft 360kts
09-Oct-20 07:46 34.361883 -116.927194 222 16268ft 349kts
09-Oct-20 07:47 34.290544 -117.008609 222 15159ft 354kts
09-Oct-20 07:48 34.211702 -117.073827 210 13804ft 348kts
09-Oct-20 07:49 34.127612 -117.126249 203 12489ft 339kts
09-Oct-20 07:50 34.042449 -117.171632 203 12030ft 333kts
09-Oct-20 07:51 33.971242 -117.231545 228 11328ft 307kts
09-Oct-20 07:52 33.919338 -117.304276 229 10030ft 276kts
09-Oct-20 07:53 33.870864 -117.372450 230 8526ft 255kts
09-Oct-20 07:54 33.827299 -117.434335 232 8033ft 240kts
09-Oct-20 07:55 33.799378 -117.506277 250 7646ft 238kts
09-Oct-20 07:56 33.811415 -117.581365 291 7642ft 219kts
09-Oct-20 07:57 33.834267 -117.644052 301 7264ft 209kts
09-Oct-20 07:58 33.865008 -117.705861 301 4808ft 221kts
09-Oct-20 07:59 33.892274 -117.770102 262 3002ft 194kts
09-Oct-20 08:00 33.846729 -117.787669 171 3029ft 194kts
09-Oct-20 08:01 33.794361 -117.792358 209 2596ft 194kts
09-Oct-20 08:02 33.748770 -117.822466 207 1585ft 166kts
09-Oct-20 08:03 33.711357 -117.846214 207 750ft 150kts
09-Oct-20 08:04 33.675276 -117.869188 205 67ft 110kts
09-Oct-20 08:05 33.669149 -117.871539 118 66ft 0kts
09-Oct-20 08:06 33.670471 -117.869530 40 66ft 20kts
09-Oct-20 08:07 33.675127 -117.865832 27 66ft 15kts
09-Oct-20 08:08 33.675370 -117.864877 117 66ft 0kts

Navigation Log

Ident Type
Flight plan parsing failed, navigation log unavailable